Time;durP1;ratioP1;P1;durP2;ratioP2;P2;SDS_P1;SDS_P2;PMS_P1;PMS_P2;Temp;Humidity;BMP_temperature;BMP_pressure;BME280_temperature;BME280_humidity;BME280_pressure;Samples;Min_cycle;Max_cycle;Signal;HPM_P1;HPM_P2
2022/03/29 00:01:46;;;;;;;18.87;9.93;;;;;;;8.39;56.57;100206.48;1730337;83;21462;-72
2022/03/29 00:04:13;;;;;;;16.03;10.13;;;;;;;8.31;56.81;100207.98;1730692;83;20969;-72
2022/03/29 00:06:41;;;;;;;15.03;9.73;;;;;;;8.32;57.16;100203.64;1697876;84;21134;-72
2022/03/29 00:09:08;;;;;;;17.10;9.10;;;;;;;8.29;57.23;100201.97;1730547;82;20993;-72
2022/03/29 00:11:35;;;;;;;17.47;9.63;;;;;;;8.31;57.33;100204.06;1730290;83;21004;-72
2022/03/29 00:14:02;;;;;;;15.80;9.73;;;;;;;8.29;57.30;100200.66;1730606;83;20981;-72
2022/03/29 00:16:30;;;;;;;16.63;10.00;;;;;;;8.25;57.18;100205.11;1730269;83;21025;-72
2022/03/29 00:18:57;;;;;;;13.30;8.43;;;;;;;8.18;57.14;100201.45;1698117;84;21122;-72
2022/03/29 00:21:27;;;;;;;14.90;8.20;;;;;;;8.09;57.13;100210.38;1730288;83;20993;-72
2022/03/29 00:23:55;;;;;;;14.15;8.10;;;;;;;8.04;57.23;100203.16;1730774;83;21021;-72
2022/03/29 00:26:21;;;;;;;14.03;9.33;;;;;;;7.99;57.22;100205.05;1730257;83;20961;-72
2022/03/29 00:28:49;;;;;;;16.13;8.83;;;;;;;7.92;57.30;100200.90;1730639;83;21087;-72
2022/03/29 00:31:17;;;;;;;12.47;8.83;;;;;;;7.83;57.31;100206.79;1730280;83;21150;-72
2022/03/29 00:33:45;;;;;;;14.70;8.73;;;;;;;7.69;57.27;100208.94;1730579;83;20954;-72
2022/03/29 00:36:12;;;;;;;11.50;8.17;;;;;;;7.58;57.37;100212.30;1730209;83;20989;-73
2022/03/29 00:38:40;;;;;;;14.50;8.40;;;;;;;7.47;57.53;100212.59;1730650;83;21981;-72
2022/03/29 00:41:08;;;;;;;13.30;8.03;;;;;;;7.41;57.80;100208.86;1731232;82;21038;-72
2022/03/29 00:43:36;;;;;;;14.77;8.33;;;;;;;7.31;57.84;100204.31;1731781;82;21470;-72
2022/03/29 00:46:04;;;;;;;16.13;8.70;;;;;;;7.26;58.15;100199.70;1694032;83;20912;-71
2022/03/29 00:48:31;;;;;;;12.00;7.80;;;;;;;7.24;58.23;100200.64;1694277;84;20984;-72
2022/03/29 00:50:58;;;;;;;12.43;8.00;;;;;;;7.17;58.13;100197.31;1694135;84;20969;-71
2022/03/29 00:53:26;;;;;;;13.37;7.30;;;;;;;7.02;58.09;100196.43;1694258;84;21016;-72
2022/03/29 00:55:59;;;;;;;12.90;7.80;;;;;;;6.91;58.36;100204.06;1694239;84;21143;-71
2022/03/29 00:58:22;;;;;;;14.43;8.67;;;;;;;6.87;58.54;100204.16;1692960;84;20979;-72
2022/03/29 01:00:49;;;;;;;13.10;7.67;;;;;;;6.84;58.76;100209.00;1694253;84;21027;-72
2022/03/29 01:03:17;;;;;;;14.17;7.97;;;;;;;6.70;58.38;100209.80;1694072;84;21028;-72
2022/03/29 01:05:44;;;;;;;12.03;7.93;;;;;;;6.57;58.66;100213.58;1694070;84;21039;-72
2022/03/29 01:08:12;;;;;;;15.67;8.70;;;;;;;6.45;58.75;100212.97;1694207;84;21117;-72
2022/03/29 01:10:40;;;;;;;14.50;8.50;;;;;;;6.34;58.83;100221.47;1676271;84;21564;-72
2022/03/29 01:13:07;;;;;;;13.27;8.73;;;;;;;6.25;59.28;100224.29;1694000;84;21072;-72
2022/03/29 01:15:37;;;;;;;14.40;8.70;;;;;;;6.20;59.60;100226.13;1694400;84;21035;-73
2022/03/29 01:18:05;;;;;;;;;;;;;;;6.13;59.72;100219.37;1696600;84;21010;-71
2022/03/29 01:20:33;;;;;;;12.60;8.10;;;;;;;6.05;59.90;100211.72;1694283;84;21159;-71
2022/03/29 01:23:02;;;;;;;14.00;8.37;;;;;;;5.96;59.95;100202.38;1694049;84;20973;-72
2022/03/29 01:25:39;;;;;;;16.83;9.00;;;;;;;5.89;60.06;100198.59;1694264;84;21023;-71
2022/03/29 01:28:07;;;;;;;13.80;8.23;;;;;;;5.85;60.40;100199.52;1694018;84;21529;-72
2022/03/29 01:30:35;;;;;;;15.10;8.27;;;;;;;5.79;60.62;100193.59;1694346;84;20988;-71
2022/03/29 01:33:06;;;;;;;13.00;8.27;;;;;;;5.83;61.05;100192.22;1694128;84;21497;-72
2022/03/29 01:35:35;;;;;;;15.33;8.27;;;;;;;5.90;61.25;100193.79;1694297;84;21273;-72
2022/03/29 01:38:02;;;;;;;18.10;8.23;;;;;;;5.98;61.64;100194.06;1694101;84;21024;-72
2022/03/29 01:40:30;;;;;;;13.30;8.07;;;;;;;6.08;61.70;100193.89;1694038;84;21031;-71
2022/03/29 01:43:01;;;;;;;11.67;7.53;;;;;;;6.14;61.69;100196.34;1694051;84;21544;-72
2022/03/29 01:45:32;;;;;;;12.27;7.70;;;;;;;6.18;61.73;100181.94;1694262;84;21183;-71
2022/03/29 01:47:59;;;;;;;11.17;7.50;;;;;;;6.25;61.79;100186.09;1693990;84;21475;-71
2022/03/29 01:50:27;;;;;;;11.40;7.47;;;;;;;6.32;61.75;100180.33;1694398;84;21573;-72
2022/03/29 01:52:56;;;;;;;12.57;7.40;;;;;;;6.33;61.65;100175.52;1694129;84;21009;-72
2022/03/29 01:55:25;;;;;;;12.10;7.37;;;;;;;6.32;61.50;100176.42;1694425;84;21497;-71
2022/03/29 01:57:53;;;;;;;11.33;6.80;;;;;;;6.32;61.55;100179.03;1693979;84;21183;-72
2022/03/29 02:00:34;;;;;;;11.53;7.10;;;;;;;6.25;61.43;100173.09;1694196;84;21016;-72
2022/03/29 02:03:05;;;;;;;15.43;8.27;;;;;;;6.14;61.20;100165.13;1694214;84;20997;-72
2022/03/29 02:05:33;;;;;;;10.60;6.50;;;;;;;6.03;61.48;100164.91;1693999;84;21016;-72
2022/03/29 02:08:02;;;;;;;11.17;7.43;;;;;;;5.94;61.29;100159.91;1694336;84;21024;-71
2022/03/29 02:10:30;;;;;;;12.33;7.40;;;;;;;5.86;61.54;100154.44;1694049;84;21310;-71
2022/03/29 02:12:58;;;;;;;13.90;8.23;;;;;;;5.76;61.52;100154.64;1694234;84;21028;-71
2022/03/29 02:15:26;;;;;;;14.07;7.93;;;;;;;5.68;61.69;100143.97;1694091;84;21035;-71
2022/03/29 02:17:53;;;;;;;15.80;8.57;;;;;;;5.65;61.96;100142.28;1694310;84;21433;-71
2022/03/29 02:20:24;;;;;;;13.80;7.33;;;;;;;5.61;62.22;100143.70;1694038;84;20989;-72
2022/03/29 02:22:51;;;;;;;12.78;7.35;;;;;;;5.56;62.21;100135.53;1694410;84;21182;-71
2022/03/29 02:25:18;;;;;;;12.40;8.03;;;;;;;5.53;62.21;100125.20;1693982;84;21063;-72
2022/03/29 02:27:46;;;;;;;11.57;7.43;;;;;;;5.45;62.25;100120.61;1694305;84;21275;-71
2022/03/29 02:30:16;;;;;;;10.73;7.57;;;;;;;5.41;62.53;100119.42;1693998;84;22029;-76
2022/03/29 02:32:46;;;;;;;11.08;6.95;;;;;;;5.36;62.72;100120.80;1694377;84;21055;-72
2022/03/29 02:35:14;;;;;;;9.30;6.33;;;;;;;5.34;62.95;100118.22;1694085;84;21871;-72
2022/03/29 02:37:42;;;;;;;13.83;6.80;;;;;;;5.32;63.18;100126.52;1694175;84;21024;-71
2022/03/29 02:40:13;;;;;;;11.13;6.93;;;;;;;5.35;63.54;100126.45;1694018;84;21608;-72
2022/03/29 02:42:51;;;;;;;12.07;7.00;;;;;;;5.44;63.83;100128.00;1694304;83;21083;-72
2022/03/29 02:45:21;;;;;;;10.60;6.70;;;;;;;5.52;63.79;100119.61;1663104;86;21039;-71
2022/03/29 02:47:52;;;;;;;13.18;7.00;;;;;;;5.53;63.64;100112.66;1663198;86;21154;-71
2022/03/29 02:50:20;;;;;;;12.37;7.30;;;;;;;5.55;63.79;100119.98;1663028;86;21041;-71
2022/03/29 02:52:53;;;;;;;10.27;7.27;;;;;;;5.56;63.89;100117.79;1663057;86;21004;-72
2022/03/29 02:55:23;;;;;;;13.27;7.37;;;;;;;5.65;64.04;100115.44;1663076;86;21020;-71
2022/03/29 02:57:50;;;;;;;14.90;8.18;;;;;;;5.67;63.91;100119.72;1663218;86;21024;-72
2022/03/29 03:00:19;;;;;;;17.00;8.47;;;;;;;5.70;63.92;100117.50;1663094;86;21813;-71
2022/03/29 03:02:54;;;;;;;13.43;7.80;;;;;;;5.70;63.85;100118.80;1663207;86;21028;-71
2022/03/29 03:05:24;;;;;;;13.50;8.20;;;;;;;5.68;63.80;100118.84;1663068;86;21000;-71
2022/03/29 03:07:51;;;;;;;13.87;7.93;;;;;;;5.66;63.79;100118.02;1663391;86;21017;-71
2022/03/29 03:10:19;;;;;;;13.83;8.27;;;;;;;5.61;63.86;100112.05;1663064;86;21021;-71
2022/03/29 03:12:48;;;;;;;14.20;8.10;;;;;;;5.64;64.08;100113.73;1663391;86;21128;-72
2022/03/29 03:15:19;;;;;;;17.05;10.23;;;;;;;5.65;64.08;100114.98;1663140;86;21007;-72
2022/03/29 03:17:47;;;;;;;17.90;9.70;;;;;;;5.65;63.88;100120.63;1676798;85;21043;-72
2022/03/29 03:20:15;;;;;;;16.20;8.63;;;;;;;5.58;63.96;100111.67;1693958;84;20901;-71
2022/03/29 03:22:43;;;;;;;18.80;9.63;;;;;;;5.54;63.97;100119.14;1681288;85;21031;-71
2022/03/29 03:25:11;;;;;;;18.30;9.10;;;;;;;5.49;63.98;100119.67;1693960;84;21499;-72
2022/03/29 03:27:40;;;;;;;17.00;9.03;;;;;;;5.44;64.10;100116.30;1681295;85;21023;-72
2022/03/29 03:30:13;;;;;;;15.43;9.60;;;;;;;5.37;64.21;100110.36;1694269;84;21023;-71
2022/03/29 03:32:42;;;;;;;12.63;8.03;;;;;;;5.33;64.38;100113.07;1694382;83;21028;-71
2022/03/29 03:35:11;;;;;;;17.60;9.15;;;;;;;5.28;64.33;100109.70;1663187;86;21011;-72
2022/03/29 03:37:39;;;;;;;24.73;10.77;;;;;;;5.23;64.54;100112.38;1663285;86;21129;-72
2022/03/29 03:40:10;;;;;;;16.23;10.37;;;;;;;5.22;64.68;100105.94;1676660;85;21034;-71
2022/03/29 03:42:38;;;;;;;20.77;10.60;;;;;;;5.21;64.76;100105.09;1676639;85;21095;-73
2022/03/29 03:45:07;;;;;;;13.43;8.83;;;;;;;5.20;64.87;100104.66;1676669;85;21046;-71
2022/03/29 03:47:35;;;;;;;14.95;8.95;;;;;;;5.20;65.06;100111.15;1677045;85;21588;-71
2022/03/29 03:50:05;;;;;;;13.07;8.80;;;;;;;5.17;64.90;100115.56;1676613;85;21949;-71
2022/03/29 03:52:32;;;;;;;13.10;8.43;;;;;;;5.14;65.05;100113.42;1694239;84;21567;-72
2022/03/29 03:55:00;;;;;;;16.57;8.43;;;;;;;5.15;65.10;100109.08;1681115;85;21038;-71
2022/03/29 03:57:27;;;;;;;17.40;10.17;;;;;;;5.14;65.12;100111.27;1693934;84;22187;-71
2022/03/29 03:59:56;;;;;;;13.80;8.83;;;;;;;5.08;64.82;100114.84;1681160;85;21018;-71
2022/03/29 04:02:24;;;;;;;13.53;8.07;;;;;;;4.94;64.49;100114.26;1693901;83;21969;-72
2022/03/29 04:04:51;;;;;;;16.30;8.13;;;;;;;4.77;64.12;100108.52;1681251;85;20999;-72
2022/03/29 04:07:20;;;;;;;15.17;8.37;;;;;;;4.64;64.39;100110.02;1693956;84;20924;-72
2022/03/29 04:09:48;;;;;;;14.53;8.87;;;;;;;4.54;64.67;100114.09;1681059;85;21055;-71
2022/03/29 04:12:15;;;;;;;13.47;7.63;;;;;;;4.44;64.77;100118.15;1694101;84;21005;-72
2022/03/29 04:14:42;;;;;;;12.60;7.57;;;;;;;4.33;64.47;100108.39;1681142;85;22136;-71
2022/03/29 04:17:11;;;;;;;15.87;9.23;;;;;;;4.23;64.42;100113.30;1693999;84;21008;-71
2022/03/29 04:19:39;;;;;;;13.47;8.53;;;;;;;4.10;64.64;100104.87;1681165;85;21043;-72
2022/03/29 04:22:06;;;;;;;15.87;8.13;;;;;;;4.09;65.06;100107.02;1694056;84;21524;-72
2022/03/29 04:24:34;;;;;;;14.07;9.37;;;;;;;4.00;65.08;100112.36;1694236;83;21023;-71
2022/03/29 04:27:00;;;;;;;48.17;21.07;;;;;;;3.88;64.95;100117.30;1694070;84;21470;-71
2022/03/29 04:29:29;;;;;;;18.40;11.00;;;;;;;3.83;65.24;100105.27;1694047;84;21083;-72
2022/03/29 04:31:56;;;;;;;19.90;9.67;;;;;;;3.77;65.24;100104.48;1694057;84;21039;-72
2022/03/29 04:34:25;;;;;;;19.93;10.00;;;;;;;3.78;65.77;100102.29;1694155;83;21549;-72
2022/03/29 04:36:52;;;;;;;33.47;14.47;;;;;;;3.78;66.25;100101.44;1666157;86;21039;-71
2022/03/29 04:39:19;;;;;;;35.70;15.47;;;;;;;3.84;66.54;100102.64;1681448;85;21075;-71
2022/03/29 04:41:46;;;;;;;46.63;18.67;;;;;;;3.92;66.99;100095.61;1678745;85;21628;-72
2022/03/29 04:44:14;;;;;;;34.57;14.63;;;;;;;3.96;67.13;100093.41;1701300;83;21024;-71
2022/03/29 04:46:41;;;;;;;35.07;14.57;;;;;;;4.03;67.35;100090.27;1701681;84;20992;-72
2022/03/29 04:49:08;;;;;;;36.90;17.20;;;;;;;4.06;67.47;100088.07;1666737;86;21476;-72
2022/03/29 04:51:36;;;;;;;31.60;14.07;;;;;;;4.12;67.73;100094.45;1701554;84;21161;-71
2022/03/29 04:54:03;;;;;;;37.27;16.27;;;;;;;4.16;67.91;100081.87;1701349;84;20996;-71
2022/03/29 04:56:30;;;;;;;22.97;11.67;;;;;;;4.23;68.09;100082.17;1666944;86;21499;-71
2022/03/29 04:58:57;;;;;;;109.30;39.60;;;;;;;4.36;68.42;100084.98;1701296;84;21037;-71
2022/03/29 05:01:24;;;;;;;110.53;44.67;;;;;;;4.49;68.52;100088.23;1701545;84;21001;-71
2022/03/29 05:03:52;;;;;;;49.23;24.10;;;;;;;4.64;68.74;100089.25;1666840;86;21847;-71
2022/03/29 05:06:21;;;;;;;30.10;16.03;;;;;;;4.79;68.77;100089.41;1701527;84;21054;-72
2022/03/29 05:08:48;;;;;;;33.43;17.40;;;;;;;4.95;68.83;100087.84;1701370;83;21035;-72
2022/03/29 05:11:16;;;;;;;38.90;19.30;;;;;;;5.09;68.78;100095.77;1667096;86;21048;-72
2022/03/29 05:13:43;;;;;;;64.33;30.20;;;;;;;5.21;68.69;100092.52;1701330;84;21480;-73
2022/03/29 05:16:11;;;;;;;59.43;28.73;;;;;;;5.32;68.51;100090.55;1701528;83;21100;-71
2022/03/29 05:18:38;;;;;;;20.53;11.70;;;;;;;5.40;68.45;100089.10;1666854;86;21050;-71
2022/03/29 05:21:08;;;;;;;17.30;10.10;;;;;;;5.48;68.35;100082.00;1701559;83;21079;-71
2022/03/29 05:23:35;;;;;;;21.03;9.63;;;;;;;5.56;68.26;100087.89;1701206;84;20992;-71
2022/03/29 05:26:03;;;;;;;16.67;9.97;;;;;;;5.66;68.17;100089.86;1666997;86;21500;-71
2022/03/29 05:28:29;;;;;;;17.20;10.33;;;;;;;5.77;68.22;100093.08;1701293;83;21129;-71
2022/03/29 05:30:56;;;;;;;18.80;11.73;;;;;;;5.84;68.20;100092.03;1705035;83;21584;-71
2022/03/29 05:33:23;;;;;;;53.80;27.77;;;;;;;5.91;68.03;100095.38;1715849;83;21016;-76
2022/03/29 05:35:50;;;;;;;36.60;20.47;;;;;;;5.97;67.97;100095.26;1716320;83;21016;-72
2022/03/29 05:38:17;;;;;;;26.33;16.13;;;;;;;6.05;67.85;100093.78;1714997;83;21605;-71
2022/03/29 05:40:44;;;;;;;32.00;18.47;;;;;;;6.13;67.76;100095.77;1727009;83;21744;-72
2022/03/29 05:43:11;;;;;;;41.50;22.30;;;;;;;6.21;67.78;100092.53;1733267;82;20964;-71
2022/03/29 05:45:42;;;;;;;39.40;19.87;;;;;;;6.27;67.70;100091.53;1736996;82;21026;-71
2022/03/29 05:50:55;;;;;;;25.67;14.47;;;;;;;6.42;67.59;100091.98;1668515;85;49185;-70
2022/03/29 05:53:23;;;;;;;24.70;14.20;;;;;;;6.52;67.57;100093.92;1707358;83;21147;-73
2022/03/29 05:55:50;;;;;;;25.07;14.27;;;;;;;6.59;67.41;100095.46;1700490;83;21496;-71
2022/03/29 05:58:17;;;;;;;28.17;16.10;;;;;;;6.64;67.08;100097.96;1698611;83;21030;-71
2022/03/29 06:00:45;;;;;;;19.10;11.73;;;;;;;6.67;67.17;100099.18;1715027;83;20996;-71
2022/03/29 06:03:12;;;;;;;19.40;10.87;;;;;;;6.72;66.95;100105.58;1714988;83;21533;-73
2022/03/29 06:05:42;;;;;;;19.10;10.23;;;;;;;6.75;66.96;100115.92;1715048;83;21135;-76
2022/03/29 06:08:08;;;;;;;19.10;10.77;;;;;;;6.78;66.87;100118.44;1657787;86;21031;-72
2022/03/29 06:10:35;;;;;;;18.80;10.27;;;;;;;6.82;66.88;100117.48;1715386;83;21003;-75
2022/03/29 06:13:01;;;;;;;18.93;10.27;;;;;;;6.84;66.71;100120.88;1715139;83;21019;-71
2022/03/29 06:15:28;;;;;;;18.20;10.30;;;;;;;6.85;66.73;100123.46;1722285;82;21000;-71
2022/03/29 06:17:55;;;;;;;20.07;10.77;;;;;;;6.90;66.89;100132.44;1715218;83;21132;-71
2022/03/29 06:20:22;;;;;;;23.30;11.70;;;;;;;6.91;66.72;100128.95;1720453;82;21052;-75
2022/03/29 06:22:49;;;;;;;21.30;12.13;;;;;;;6.93;66.74;100129.33;1737921;81;21535;-72
2022/03/29 06:25:16;;;;;;;22.70;11.47;;;;;;;6.96;66.63;100127.09;1731206;82;21019;-76
2022/03/29 06:27:43;;;;;;;22.20;11.90;;;;;;;6.96;66.61;100134.91;1730272;83;21047;-77
2022/03/29 06:30:12;;;;;;;31.07;16.07;;;;;;;6.97;66.58;100131.39;1735352;82;21934;-72
2022/03/29 06:32:51;;;;;;;18.00;11.60;;;;;;;6.98;66.57;100129.19;1737739;82;20980;-71
2022/03/29 06:35:24;;;;;;;24.07;12.40;;;;;;;7.01;66.76;100126.52;1737999;82;21030;-72
2022/03/29 06:37:55;;;;;;;21.83;12.27;;;;;;;7.04;66.66;100119.05;1680189;85;20950;-72
2022/03/29 06:40:24;;;;;;;18.50;11.17;;;;;;;7.08;66.74;100129.81;1737613;81;21117;-72
2022/03/29 06:42:53;;;;;;;19.77;12.00;;;;;;;7.11;66.67;100127.97;1744804;81;21195;-72
2022/03/29 06:45:20;;;;;;;20.30;12.00;;;;;;;7.11;66.64;100129.27;1760490;81;21047;-72
2022/03/29 06:47:47;;;;;;;19.73;12.10;;;;;;;7.15;66.56;100124.84;1750343;81;21118;-72
2022/03/29 06:50:15;;;;;;;19.80;12.70;;;;;;;7.18;66.71;100122.16;1760420;81;20979;-72
2022/03/29 06:52:45;;;;;;;20.87;12.37;;;;;;;7.24;66.56;100131.10;1760387;81;21007;-72
2022/03/29 06:55:16;;;;;;;21.33;12.70;;;;;;;7.29;66.64;100137.50;1760541;81;21765;-72
2022/03/29 06:57:43;;;;;;;22.23;13.57;;;;;;;7.30;66.41;100138.75;1760617;81;21018;-76
2022/03/29 07:00:14;;;;;;;30.97;18.60;;;;;;;7.31;66.32;100136.98;1760448;81;21466;-72
2022/03/29 07:02:42;;;;;;;45.37;27.03;;;;;;;7.33;66.44;100137.36;1760645;81;21622;-72
2022/03/29 07:05:10;;;;;;;34.87;20.10;;;;;;;7.40;66.48;100133.27;1760352;81;21734;-71
2022/03/29 07:07:37;;;;;;;29.47;17.07;;;;;;;7.44;66.45;100135.75;1760617;81;22110;-71
2022/03/29 07:12:57;;;;;;;28.53;16.73;;;;;;;7.35;66.11;100139.48;1760718;81;21055;-75
2022/03/29 07:15:25;;;;;;;33.13;18.73;;;;;;;7.33;66.21;100135.20;1760306;81;21023;-71
2022/03/29 07:17:53;;;;;;;27.33;16.90;;;;;;;7.39;66.44;100136.33;1760672;81;21018;-75
2022/03/29 07:20:21;;;;;;;26.63;16.63;;;;;;;7.45;66.48;100129.63;1760349;81;21150;-73
2022/03/29 07:25:32;;;;;;;41.13;24.07;;;;;;;7.53;66.39;100138.55;1869837;76;26262;-72
2022/03/29 07:27:59;;;;;;;25.00;17.10;;;;;;;7.47;66.03;100130.90;1826473;78;22073;-72
2022/03/29 07:30:27;;;;;;;39.60;28.73;;;;;;;7.43;66.07;100134.05;1826385;78;21956;-74
2022/03/29 07:33:00;;;;;;;39.60;26.60;;;;;;;7.41;65.93;100133.23;1849416;77;20992;-72
2022/03/29 07:35:29;;;;;;;41.33;26.37;;;;;;;7.36;65.97;100138.56;1860239;77;21418;-72
2022/03/29 07:37:57;;;;;;;30.23;17.90;;;;;;;7.35;66.04;100132.96;1860062;77;20988;-71
2022/03/29 07:40:32;;;;;;;30.83;17.60;;;;;;;7.37;66.10;100136.39;1860293;77;21126;-72
2022/03/29 07:42:57;;;;;;;27.77;16.90;;;;;;;7.41;66.19;100138.91;1858655;77;21137;-72
2022/03/29 07:45:25;;;;;;;31.90;19.03;;;;;;;7.36;65.89;100137.27;1859989;77;21493;-73
2022/03/29 07:47:55;;;;;;;26.33;16.63;;;;;;;7.31;65.99;100136.53;1860427;77;21489;-72
2022/03/29 07:50:22;;;;;;;28.07;16.90;;;;;;;7.32;65.92;100133.50;1847373;77;20957;-73
2022/03/29 07:52:50;;;;;;;27.70;17.87;;;;;;;7.30;65.95;100140.05;1835054;77;20988;-75
2022/03/29 07:55:17;;;;;;;26.37;17.23;;;;;;;7.29;65.89;100137.50;1826470;78;21061;-74
2022/03/29 07:57:45;;;;;;;25.63;16.57;;;;;;;7.31;66.08;100145.66;1826188;78;20949;-75
2022/03/29 08:00:32;;;;;;;27.33;16.87;;;;;;;7.33;65.90;100137.36;1826456;78;20988;-72
2022/03/29 08:03:06;;;;;;;24.90;16.43;;;;;;;7.29;65.89;100141.41;1826597;78;21015;-71
2022/03/29 08:05:35;;;;;;;25.40;17.10;;;;;;;7.28;66.11;100136.63;1826365;78;21556;-72
2022/03/29 08:08:04;;;;;;;27.90;17.10;;;;;;;7.32;66.12;100132.20;1826344;78;21109;-73
2022/03/29 08:10:33;;;;;;;26.75;17.48;;;;;;;7.32;66.03;100127.84;1826372;77;21043;-79
2022/03/29 08:13:02;;;;;;;25.97;18.47;;;;;;;7.34;65.98;100131.69;1827135;77;21008;-77
2022/03/29 08:15:30;;;;;;;26.62;18.17;;;;;;;7.34;65.95;100132.56;1844166;77;21531;-72
2022/03/29 08:17:58;;;;;;;33.57;19.43;;;;;;;7.29;65.78;100129.69;1819991;78;21260;-74
2022/03/29 08:20:26;;;;;;;26.73;17.47;;;;;;;7.22;65.75;100130.73;1790249;78;21104;-74
2022/03/29 08:23:01;;;;;;;25.23;17.00;;;;;;;7.17;65.89;100130.85;1790121;79;20928;-73
2022/03/29 08:25:32;;;;;;;28.83;18.43;;;;;;;7.13;65.87;100135.30;1794143;79;21015;-73
2022/03/29 08:28:01;;;;;;;25.70;17.37;;;;;;;7.06;65.89;100136.80;1761396;81;20996;-74
2022/03/29 08:30:30;;;;;;;26.03;18.03;;;;;;;7.01;65.88;100132.16;1793850;80;21501;-73
2022/03/29 08:32:59;;;;;;;31.13;18.13;;;;;;;6.98;65.88;100139.61;1760216;81;21081;-73
2022/03/29 08:35:26;;;;;;;25.53;17.73;;;;;;;6.98;66.04;100137.45;1773002;80;21075;-76
2022/03/29 08:37:53;;;;;;;26.63;18.80;;;;;;;6.98;66.05;100133.09;1766244;80;21031;-74
2022/03/29 08:40:26;;;;;;;29.50;18.57;;;;;;;6.98;66.11;100132.24;1765717;80;20989;-73
2022/03/29 08:42:55;;;;;;;27.03;18.40;;;;;;;7.00;66.31;100140.88;1787323;80;20991;-73
2022/03/29 08:45:29;;;;;;;25.57;18.55;;;;;;;7.00;66.12;100136.52;1759468;81;21179;-72
2022/03/29 08:47:58;;;;;;;31.47;18.30;;;;;;;6.99;66.13;100137.42;1759640;81;21534;-74
2022/03/29 08:50:29;;;;;;;31.35;19.67;;;;;;;6.98;66.13;100137.00;1787059;80;21069;-73
2022/03/29 08:52:56;;;;;;;29.53;19.63;;;;;;;6.96;66.03;100134.05;1759848;81;21023;-72
2022/03/29 08:55:23;;;;;;;28.70;18.80;;;;;;;6.95;66.05;100134.48;1787308;80;20999;-71
2022/03/29 08:57:54;;;;;;;29.07;18.00;;;;;;;6.96;66.14;100131.00;1760003;81;21086;-72
2022/03/29 09:00:20;;;;;;;25.00;18.17;;;;;;;6.98;66.19;100129.19;1786920;80;21014;-72
2022/03/29 09:02:47;;;;;;;28.23;17.77;;;;;;;7.04;66.28;100130.34;1760018;81;20973;-73
2022/03/29 09:05:26;;;;;;;24.10;17.70;;;;;;;7.11;66.20;100122.75;1787358;80;21529;-73
2022/03/29 09:07:57;;;;;;;27.53;20.07;;;;;;;7.20;66.08;100120.34;1760024;81;20998;-73
2022/03/29 09:10:49;;;;;;;29.77;18.97;;;;;;;7.25;65.77;100117.61;1769268;80;21124;-74
2022/03/29 09:13:29;;;;;;;26.87;18.43;;;;;;;7.22;65.60;100115.09;1765935;80;20999;-72
2022/03/29 09:16:01;;;;;;;27.20;19.30;;;;;;;7.22;65.57;100109.88;1780180;80;21055;-73
2022/03/29 09:18:30;;;;;;;26.60;19.37;;;;;;;7.27;65.47;100108.86;1786775;79;21060;-74
2022/03/29 09:21:17;;;;;;;28.67;20.47;;;;;;;7.26;65.31;100104.97;1786731;80;21074;-73
2022/03/29 09:24:08;;;;;;;28.73;19.80;;;;;;;7.30;65.32;100108.77;1786499;79;21104;-74
2022/03/29 09:26:39;;;;;;;26.97;19.57;;;;;;;7.30;65.19;100107.91;1769299;81;20986;-74
2022/03/29 09:29:19;;;;;;;28.30;20.07;;;;;;;7.32;65.10;100095.70;1770523;81;21443;-74
2022/03/29 09:32:06;;;;;;;24.55;18.40;;;;;;;7.32;64.88;100100.45;1770423;81;21016;-74
2022/03/29 09:34:34;;;;;;;25.07;18.23;;;;;;;7.33;64.90;100095.64;1704238;84;21116;-74
2022/03/29 09:37:03;;;;;;;25.70;18.40;;;;;;;7.36;64.75;100089.48;1704169;84;21130;-74
2022/03/29 09:39:48;;;;;;;25.40;18.10;;;;;;;7.38;64.77;100092.45;1704361;84;20935;-74
2022/03/29 09:42:18;;;;;;;28.30;19.23;;;;;;;7.46;64.88;100090.94;1704231;84;21019;-74
2022/03/29 09:44:57;;;;;;;25.60;18.33;;;;;;;7.53;64.65;100084.63;1704398;84;21111;-74
2022/03/29 09:47:23;;;;;;;27.20;17.80;;;;;;;7.54;64.49;100083.74;1702881;84;21022;-74
2022/03/29 09:50:02;;;;;;;27.03;18.07;;;;;;;7.60;64.60;100087.92;1704267;84;21787;-74
2022/03/29 09:52:33;;;;;;;26.97;19.60;;;;;;;7.63;64.39;100076.09;1704193;84;21611;-74
2022/03/29 09:55:21;;;;;;;24.63;18.03;;;;;;;7.67;64.17;100080.75;1704178;84;21516;-74
2022/03/29 09:57:57;;;;;;;26.97;19.63;;;;;;;7.67;64.19;100078.99;1704167;84;21055;-74
2022/03/29 10:00:39;;;;;;;27.40;19.23;;;;;;;7.72;64.15;100078.41;1704200;84;21054;-74
2022/03/29 10:03:08;;;;;;;26.67;18.57;;;;;;;7.73;63.90;100074.04;1702726;84;21203;-74
2022/03/29 10:05:39;;;;;;;25.10;19.07;;;;;;;7.69;63.75;100070.68;1704097;84;21019;-81
2022/03/29 10:11:10;;;;;;;27.67;19.33;;;;;;;7.77;63.98;100065.23;1724365;82;20996;-74
2022/03/29 10:13:38;;;;;;;27.77;18.97;;;;;;;7.76;63.69;100064.39;1739650;82;21090;-75
2022/03/29 10:16:08;;;;;;;29.37;19.10;;;;;;;7.80;63.77;100056.00;1739609;82;21951;-81
2022/03/29 10:18:35;;;;;;;28.73;19.48;;;;;;;7.85;63.65;100059.78;1711168;82;21071;-75
2022/03/29 10:21:05;;;;;;;25.47;18.30;;;;;;;7.90;63.68;100056.12;1739596;82;21524;-75
2022/03/29 10:23:34;;;;;;;28.33;18.20;;;;;;;7.93;63.51;100057.34;1759356;81;21079;-76
2022/03/29 10:26:01;;;;;;;25.90;17.30;;;;;;;7.90;63.46;100057.44;1765500;81;21003;-76
2022/03/29 10:28:29;;;;;;;28.37;18.60;;;;;;;7.87;63.42;100051.02;1774542;79;21052;-75
2022/03/29 10:30:57;;;;;;;23.40;18.33;;;;;;;7.84;63.25;100056.30;1772159;79;21083;-75
2022/03/29 10:33:33;;;;;;;26.43;18.90;;;;;;;7.77;63.24;100047.82;1792130;79;20992;-75
2022/03/29 10:36:11;;;;;;;26.23;18.67;;;;;;;7.78;63.42;100038.23;1774790;79;21001;-75
2022/03/29 10:38:51;;;;;;;29.83;19.40;;;;;;;7.85;63.68;100040.22;1770543;79;20988;-75
2022/03/29 10:41:33;;;;;;;27.17;19.45;;;;;;;7.91;63.40;100041.32;1777017;79;21217;-75
2022/03/29 10:44:08;;;;;;;29.77;19.20;;;;;;;7.87;63.27;100034.47;1783885;80;21068;-75
2022/03/29 10:46:47;;;;;;;25.70;18.43;;;;;;;7.89;63.42;100037.44;1783855;80;21032;-75
2022/03/29 10:49:24;;;;;;;26.12;18.40;;;;;;;7.90;63.28;100040.90;1784271;79;21000;-75
2022/03/29 10:51:55;;;;;;;27.27;18.57;;;;;;;7.88;63.27;100038.81;1784145;79;21027;-75
2022/03/29 10:54:38;;;;;;;28.03;18.27;;;;;;;7.90;63.41;100037.86;1770752;81;21150;-75
2022/03/29 10:57:24;;;;;;;24.50;17.00;;;;;;;7.90;63.33;100040.47;1778042;79;21489;-75
2022/03/29 11:00:11;;;;;;;24.10;17.10;;;;;;;7.88;63.21;100034.89;1802452;79;21025;-75
2022/03/29 11:03:07;;;;;;;28.30;17.47;;;;;;;7.88;63.31;100038.81;1775267;79;21007;-75
2022/03/29 11:06:12;;;;;;;24.43;17.53;;;;;;;7.88;63.35;100044.88;1802444;79;21066;-75
2022/03/29 11:08:43;;;;;;;28.47;18.83;;;;;;;7.87;63.28;100036.66;1694450;83;21202;-75
2022/03/29 11:11:37;;;;;;;25.87;18.77;;;;;;;7.83;63.26;100027.20;1717537;83;21542;-75
2022/03/29 11:14:34;;;;;;;29.40;20.10;;;;;;;7.75;63.14;100040.48;1714537;83;21067;-76
2022/03/29 11:17:16;;;;;;;30.70;21.70;;;;;;;7.66;63.17;100026.89;1708554;83;21023;-75
2022/03/29 11:19:49;;;;;;;37.17;24.83;;;;;;;7.75;63.50;100018.77;1702655;84;21020;-75
2022/03/29 11:22:36;;;;;;;35.17;24.73;;;;;;;7.89;63.74;100019.63;1702558;84;21187;-75
2022/03/29 11:25:10;;;;;;;32.23;21.80;;;;;;;8.02;63.67;100017.88;1701762;84;21000;-75
2022/03/29 11:27:38;;;;;;;31.73;18.83;;;;;;;8.12;63.39;100019.75;1701098;84;21587;-76
2022/03/29 11:30:09;;;;;;;27.93;18.93;;;;;;;8.16;63.26;100012.66;1701102;84;21028;-75
2022/03/29 11:32:43;;;;;;;32.60;21.47;;;;;;;8.14;63.03;100014.00;1701102;84;21686;-75
2022/03/29 11:35:16;;;;;;;31.20;20.03;;;;;;;8.17;62.97;100007.38;1700919;84;21990;-75
2022/03/29 11:37:45;;;;;;;31.43;19.77;;;;;;;8.29;63.24;100002.67;1700685;84;21031;-76
2022/03/29 11:40:22;;;;;;;30.00;19.63;;;;;;;8.47;63.27;100008.59;1701070;84;21094;-75
2022/03/29 11:42:49;;;;;;;25.33;19.90;;;;;;;8.57;62.59;100000.84;1735662;81;21026;-76
2022/03/29 11:45:24;;;;;;;30.93;22.50;;;;;;;8.64;62.66;99995.78;1770179;81;21495;-75